sensor_id;sensor_type;location;lat;lon;timestamp;pressure;altitude;pressure_sealevel;temperature;humidity
73941;BME280;62294;48.554;10.202;2023-04-24T00:00:46;91476.00;;;8.80;100.00
73941;BME280;62294;48.554;10.202;2023-04-24T00:03:13;91487.53;;;8.75;100.00
73941;BME280;62294;48.554;10.202;2023-04-24T00:05:40;91501.72;;;8.71;100.00
73941;BME280;62294;48.554;10.202;2023-04-24T00:08:08;91501.72;;;8.71;100.00
73941;BME280;62294;48.554;10.202;2023-04-24T00:10:34;91495.31;;;8.72;100.00
73941;BME280;62294;48.554;10.202;2023-04-24T00:13:01;91502.19;;;8.73;100.00
73941;BME280;62294;48.554;10.202;2023-04-24T00:15:27;91514.97;;;8.71;100.00
73941;BME280;62294;48.554;10.202;2023-04-24T00:17:54;91518.88;;;8.65;100.00
73941;BME280;62294;48.554;10.202;2023-04-24T00:20:20;91533.81;;;8.69;100.00
73941;BME280;62294;48.554;10.202;2023-04-24T00:22:48;91533.81;;;8.69;100.00
73941;BME280;62294;48.554;10.202;2023-04-24T00:25:14;91517.28;;;8.72;100.00
73941;BME280;62294;48.554;10.202;2023-04-24T00:27:40;91509.66;;;8.71;100.00
73941;BME280;62294;48.554;10.202;2023-04-24T00:30:08;91524.31;;;8.68;100.00
73941;BME280;62294;48.554;10.202;2023-04-24T00:32:34;91526.16;;;8.68;100.00
73941;BME280;62294;48.554;10.202;2023-04-24T00:35:01;91509.84;;;8.66;100.00
73941;BME280;62294;48.554;10.202;2023-04-24T00:37:28;91515.44;;;8.64;100.00
73941;BME280;62294;48.554;10.202;2023-04-24T00:39:54;91498.75;;;8.72;100.00
73941;BME280;62294;48.554;10.202;2023-04-24T00:42:21;91499.41;;;8.69;100.00
73941;BME280;62294;48.554;10.202;2023-04-24T00:44:48;91497.97;;;8.72;100.00
73941;BME280;62294;48.554;10.202;2023-04-24T00:47:15;91483.31;;;8.74;100.00
73941;BME280;62294;48.554;10.202;2023-04-24T00:49:42;91494.41;;;8.68;100.00
73941;BME280;62294;48.554;10.202;2023-04-24T00:52:09;91487.25;;;8.68;100.00
73941;BME280;62294;48.554;10.202;2023-04-24T00:54:35;91485.97;;;8.74;100.00
73941;BME280;62294;48.554;10.202;2023-04-24T00:57:05;91484.28;;;8.70;100.00
73941;BME280;62294;48.554;10.202;2023-04-24T00:59:32;91504.38;;;8.71;100.00
73941;BME280;62294;48.554;10.202;2023-04-24T01:01:59;91503.75;;;8.65;100.00
73941;BME280;62294;48.554;10.202;2023-04-24T01:04:26;91490.69;;;8.69;100.00
73941;BME280;62294;48.554;10.202;2023-04-24T01:06:54;91489.56;;;8.70;100.00
73941;BME280;62294;48.554;10.202;2023-04-24T01:09:23;91479.66;;;8.67;100.00
73941;BME280;62294;48.554;10.202;2023-04-24T01:11:50;91471.38;;;8.68;100.00
73941;BME280;62294;48.554;10.202;2023-04-24T01:14:17;91470.91;;;8.66;100.00
73941;BME280;62294;48.554;10.202;2023-04-24T01:16:43;91471.06;;;8.70;100.00
73941;BME280;62294;48.554;10.202;2023-04-24T01:19:10;91466.69;;;8.74;100.00
73941;BME280;62294;48.554;10.202;2023-04-24T01:21:38;91467.78;;;8.73;100.00
73941;BME280;62294;48.554;10.202;2023-04-24T01:24:06;91466.41;;;8.67;100.00
73941;BME280;62294;48.554;10.202;2023-04-24T01:26:34;91460.00;;;8.68;100.00
73941;BME280;62294;48.554;10.202;2023-04-24T01:29:00;91465.97;;;8.65;100.00
73941;BME280;62294;48.554;10.202;2023-04-24T01:31:28;91460.66;;;8.65;100.00
73941;BME280;62294;48.554;10.202;2023-04-24T01:33:55;91478.25;;;8.61;100.00
73941;BME280;62294;48.554;10.202;2023-04-24T01:36:23;91474.06;;;8.60;100.00
73941;BME280;62294;48.554;10.202;2023-04-24T01:38:52;91480.59;;;8.62;100.00
73941;BME280;62294;48.554;10.202;2023-04-24T01:41:19;91468.59;;;8.65;100.00
73941;BME280;62294;48.554;10.202;2023-04-24T01:43:47;91470.63;;;8.59;100.00
73941;BME280;62294;48.554;10.202;2023-04-24T01:46:15;91475.59;;;8.61;100.00
73941;BME280;62294;48.554;10.202;2023-04-24T01:48:41;91466.91;;;8.60;100.00
73941;BME280;62294;48.554;10.202;2023-04-24T01:51:09;91470.97;;;8.57;100.00
73941;BME280;62294;48.554;10.202;2023-04-24T01:53:35;91484.03;;;8.54;100.00
73941;BME280;62294;48.554;10.202;2023-04-24T01:56:02;91472.03;;;8.56;100.00
73941;BME280;62294;48.554;10.202;2023-04-24T01:58:29;91480.94;;;8.52;100.00
73941;BME280;62294;48.554;10.202;2023-04-24T02:00:56;91481.09;;;8.55;100.00
73941;BME280;62294;48.554;10.202;2023-04-24T02:03:26;91484.81;;;8.54;100.00
73941;BME280;62294;48.554;10.202;2023-04-24T02:05:53;91489.97;;;8.51;100.00
73941;BME280;62294;48.554;10.202;2023-04-24T02:08:20;91502.13;;;8.43;100.00
73941;BME280;62294;48.554;10.202;2023-04-24T02:10:46;91505.56;;;8.44;100.00
73941;BME280;62294;48.554;10.202;2023-04-24T02:13:13;91501.97;;;8.40;100.00
73941;BME280;62294;48.554;10.202;2023-04-24T02:15:39;91498.69;;;8.43;100.00
73941;BME280;62294;48.554;10.202;2023-04-24T02:18:06;91501.34;;;8.43;100.00
73941;BME280;62294;48.554;10.202;2023-04-24T02:20:33;91506.31;;;8.44;100.00
73941;BME280;62294;48.554;10.202;2023-04-24T02:23:03;91508.19;;;8.44;100.00
73941;BME280;62294;48.554;10.202;2023-04-24T02:25:29;91503.38;;;8.46;100.00
73941;BME280;62294;48.554;10.202;2023-04-24T02:27:56;91492.00;;;8.45;100.00
73941;BME280;62294;48.554;10.202;2023-04-24T02:30:23;91481.56;;;8.49;100.00
73941;BME280;62294;48.554;10.202;2023-04-24T02:32:49;91451.22;;;8.46;100.00
73941;BME280;62294;48.554;10.202;2023-04-24T02:35:16;91451.88;;;8.43;100.00
73941;BME280;62294;48.554;10.202;2023-04-24T02:37:42;91439.72;;;8.42;100.00
73941;BME280;62294;48.554;10.202;2023-04-24T02:40:09;91440.38;;;8.39;100.00
73941;BME280;62294;48.554;10.202;2023-04-24T02:42:36;91429.13;;;8.42;100.00
73941;BME280;62294;48.554;10.202;2023-04-24T02:45:02;91426.50;;;8.42;100.00
73941;BME280;62294;48.554;10.202;2023-04-24T02:47:29;91414.66;;;8.40;100.00
73941;BME280;62294;48.554;10.202;2023-04-24T02:49:56;91402.69;;;8.42;100.00
73941;BME280;62294;48.554;10.202;2023-04-24T02:52:22;91392.88;;;8.43;100.00
73941;BME280;62294;48.554;10.202;2023-04-24T02:54:49;91374.97;;;8.48;100.00
73941;BME280;62294;48.554;10.202;2023-04-24T02:57:16;91353.16;;;8.51;100.00
73941;BME280;62294;48.554;10.202;2023-04-24T02:59:42;91343.22;;;8.48;100.00
73941;BME280;62294;48.554;10.202;2023-04-24T03:02:10;91342.00;;;8.46;100.00
73941;BME280;62294;48.554;10.202;2023-04-24T03:04:36;91336.09;;;8.40;100.00
73941;BME280;62294;48.554;10.202;2023-04-24T03:07:03;91340.47;;;8.36;100.00
73941;BME280;62294;48.554;10.202;2023-04-24T03:09:31;91334.28;;;8.32;100.00
73941;BME280;62294;48.554;10.202;2023-04-24T03:11:57;91315.44;;;8.34;100.00
73941;BME280;62294;48.554;10.202;2023-04-24T03:14:24;91305.50;;;8.31;100.00
73941;BME280;62294;48.554;10.202;2023-04-24T03:16:51;91298.34;;;8.31;100.00
73941;BME280;62294;48.554;10.202;2023-04-24T03:19:18;91279.38;;;8.29;100.00
73941;BME280;62294;48.554;10.202;2023-04-24T03:21:45;91285.59;;;8.25;100.00
73941;BME280;62294;48.554;10.202;2023-04-24T03:24:11;91275.78;;;8.25;100.00
73941;BME280;62294;48.554;10.202;2023-04-24T03:26:38;91267.41;;;8.23;100.00
73941;BME280;62294;48.554;10.202;2023-04-24T03:29:04;91260.75;;;8.17;100.00
73941;BME280;62294;48.554;10.202;2023-04-24T03:31:31;91249.09;;;8.18;100.00
73941;BME280;62294;48.554;10.202;2023-04-24T03:33:57;91247.06;;;8.15;100.00
73941;BME280;62294;48.554;10.202;2023-04-24T03:36:24;91236.31;;;8.20;100.00
73941;BME280;62294;48.554;10.202;2023-04-24T03:38:52;91236.94;;;8.17;100.00
73941;BME280;62294;48.554;10.202;2023-04-24T03:41:18;91241.47;;;8.17;100.00
73941;BME280;62294;48.554;10.202;2023-04-24T03:43:45;91239.91;;;8.16;100.00
73941;BME280;62294;48.554;10.202;2023-04-24T03:46:11;91245.19;;;8.16;100.00
73941;BME280;62294;48.554;10.202;2023-04-24T03:48:39;91247.06;;;8.15;100.00
73941;BME280;62294;48.554;10.202;2023-04-24T03:51:05;91239.59;;;8.17;100.00
73941;BME280;62294;48.554;10.202;2023-04-24T03:53:32;91242.38;;;8.21;100.00
73941;BME280;62294;48.554;10.202;2023-04-24T03:55:58;91249.66;;;8.24;100.00
73941;BME280;62294;48.554;10.202;2023-04-24T03:58:25;91239.69;;;8.29;100.00
73941;BME280;62294;48.554;10.202;2023-04-24T04:00:52;91239.69;;;8.29;100.00
73941;BME280;62294;48.554;10.202;2023-04-24T04:03:18;91243.69;;;8.35;100.00
73941;BME280;62294;48.554;10.202;2023-04-24T04:05:45;91232.03;;;8.36;100.00
73941;BME280;62294;48.554;10.202;2023-04-24T04:08:12;91237.16;;;8.41;100.00
73941;BME280;62294;48.554;10.202;2023-04-24T04:10:38;91237.78;;;8.38;100.00
73941;BME280;62294;48.554;10.202;2023-04-24T04:13:05;91244.47;;;8.36;100.00
73941;BME280;62294;48.554;10.202;2023-04-24T04:15:32;91254.50;;;8.30;100.00
73941;BME280;62294;48.554;10.202;2023-04-24T04:17:59;91252.94;;;8.29;100.00
73941;BME280;62294;48.554;10.202;2023-04-24T04:20:26;91249.31;;;8.34;100.00
73941;BME280;62294;48.554;10.202;2023-04-24T04:22:52;91252.75;;;8.34;100.00
73941;BME280;62294;48.554;10.202;2023-04-24T04:25:18;91249.78;;;8.36;100.00
73941;BME280;62294;48.554;10.202;2023-04-24T04:27:46;91254.94;;;8.32;100.00
73941;BME280;62294;48.554;10.202;2023-04-24T04:30:14;91251.84;;;8.30;100.00
73941;BME280;62294;48.554;10.202;2023-04-24T04:32:41;91251.50;;;8.32;100.00
73941;BME280;62294;48.554;10.202;2023-04-24T04:35:07;91254.00;;;8.28;100.00
73941;BME280;62294;48.554;10.202;2023-04-24T04:37:34;91250.91;;;8.26;100.00
73941;BME280;62294;48.554;10.202;2023-04-24T04:40:02;91256.19;;;8.26;100.00
73941;BME280;62294;48.554;10.202;2023-04-24T04:42:33;91254.94;;;8.24;100.00
73941;BME280;62294;48.554;10.202;2023-04-24T04:45:10;91259.03;;;8.21;100.00
73941;BME280;62294;48.554;10.202;2023-04-24T04:47:37;91261.97;;;8.20;100.00
73941;BME280;62294;48.554;10.202;2023-04-24T04:50:05;91258.25;;;8.21;100.00
73941;BME280;62294;48.554;10.202;2023-04-24T04:52:32;91247.78;;;8.24;100.00
73941;BME280;62294;48.554;10.202;2023-04-24T04:54:58;91256.50;;;8.25;100.00
73941;BME280;62294;48.554;10.202;2023-04-24T04:57:25;91248.09;;;8.31;100.00
73941;BME280;62294;48.554;10.202;2023-04-24T04:59:51;91257.88;;;8.31;100.00
73941;BME280;62294;48.554;10.202;2023-04-24T05:02:18;91264.84;;;8.35;100.00
73941;BME280;62294;48.554;10.202;2023-04-24T05:04:45;91271.06;;;8.39;100.00
73941;BME280;62294;48.554;10.202;2023-04-24T05:07:12;91238.22;;;8.40;100.00
73941;BME280;62294;48.554;10.202;2023-04-24T05:09:39;91245.53;;;8.43;100.00
73941;BME280;62294;48.554;10.202;2023-04-24T05:12:06;91264.34;;;8.42;100.00
73941;BME280;62294;48.554;10.202;2023-04-24T05:14:33;91963.41;;;8.47;100.00
73941;BME280;62294;48.554;10.202;2023-04-24T05:17:00;92070.31;;;8.46;100.00
73941;BME280;62294;48.554;10.202;2023-04-24T05:19:27;92077.66;;;8.49;100.00
73941;BME280;62294;48.554;10.202;2023-04-24T05:21:54;92080.31;;;8.49;100.00
73941;BME280;62294;48.554;10.202;2023-04-24T05:24:20;92071.78;;;8.52;100.00
73941;BME280;62294;48.554;10.202;2023-04-24T05:26:47;92071.66;;;8.57;100.00
73941;BME280;62294;48.554;10.202;2023-04-24T05:29:14;92077.91;;;8.62;100.00
73941;BME280;62294;48.554;10.202;2023-04-24T05:31:41;92065.16;;;8.64;100.00
73941;BME280;62294;48.554;10.202;2023-04-24T05:34:07;92061.75;;;8.72;100.00
73941;BME280;62294;48.554;10.202;2023-04-24T05:36:34;92060.81;;;8.68;100.00
73941;BME280;62294;48.554;10.202;2023-04-24T05:39:01;92069.69;;;8.72;100.00
73941;BME280;62294;48.554;10.202;2023-04-24T05:41:27;92061.94;;;8.75;100.00
73941;BME280;62294;48.554;10.202;2023-04-24T05:43:53;92055.84;;;8.75;100.00
73941;BME280;62294;48.554;10.202;2023-04-24T05:46:20;92063.34;;;8.81;100.00
73941;BME280;62294;48.554;10.202;2023-04-24T05:48:47;92063.84;;;8.83;100.00
73941;BME280;62294;48.554;10.202;2023-04-24T05:51:13;92060.91;;;8.85;100.00
73941;BME280;62294;48.554;10.202;2023-04-24T05:53:40;92066.97;;;8.85;100.00
73941;BME280;62294;48.554;10.202;2023-04-24T05:56:06;92047.38;;;8.95;100.00
73941;BME280;62294;48.554;10.202;2023-04-24T05:58:33;92053.00;;;8.93;100.00
73941;BME280;62294;48.554;10.202;2023-04-24T06:01:00;92056.09;;;8.95;100.00
73941;BME280;62294;48.554;10.202;2023-04-24T06:03:27;92068.09;;;8.93;100.00
73941;BME280;62294;48.554;10.202;2023-04-24T06:05:54;92070.59;;;8.98;100.00
73941;BME280;62294;48.554;10.202;2023-04-24T06:08:21;92069.53;;;8.99;100.00
73941;BME280;62294;48.554;10.202;2023-04-24T06:10:48;92092.41;;;8.95;100.00
73941;BME280;62294;48.554;10.202;2023-04-24T06:13:15;92099.06;;;8.92;100.00
73941;BME280;62294;48.554;10.202;2023-04-24T06:15:42;92118.53;;;8.88;100.00
73941;BME280;62294;48.554;10.202;2023-04-24T06:18:10;92130.94;;;8.79;100.00
73941;BME280;62294;48.554;10.202;2023-04-24T06:20:36;92166.38;;;8.91;100.00
73941;BME280;62294;48.554;10.202;2023-04-24T06:23:03;92211.31;;;8.61;100.00
73941;BME280;62294;48.554;10.202;2023-04-24T06:25:30;92308.47;;;7.92;100.00
73941;BME280;62294;48.554;10.202;2023-04-24T06:27:56;92375.31;;;7.47;100.00
73941;BME280;62294;48.554;10.202;2023-04-24T06:30:23;92414.34;;;7.18;100.00
73941;BME280;62294;48.554;10.202;2023-04-24T06:32:50;92416.47;;;7.15;100.00
73941;BME280;62294;48.554;10.202;2023-04-24T06:35:17;92428.81;;;7.20;100.00
73941;BME280;62294;48.554;10.202;2023-04-24T06:37:44;92445.59;;;7.10;100.00
73941;BME280;62294;48.554;10.202;2023-04-24T06:40:10;92428.25;;;7.23;100.00
73941;BME280;62294;48.554;10.202;2023-04-24T06:42:37;92435.91;;;7.25;100.00
73941;BME280;62294;48.554;10.202;2023-04-24T06:45:04;92438.72;;;7.47;100.00
73941;BME280;62294;48.554;10.202;2023-04-24T06:47:31;92430.59;;;7.62;100.00
73941;BME280;62294;48.554;10.202;2023-04-24T06:49:58;92429.41;;;7.86;100.00
73941;BME280;62294;48.554;10.202;2023-04-24T06:52:25;92415.25;;;8.23;100.00
73941;BME280;62294;48.554;10.202;2023-04-24T06:54:51;92439.91;;;8.05;100.00
73941;BME280;62294;48.554;10.202;2023-04-24T06:57:19;92420.13;;;8.48;100.00
73941;BME280;62294;48.554;10.202;2023-04-24T06:59:45;92438.44;;;8.58;100.00
73941;BME280;62294;48.554;10.202;2023-04-24T07:02:12;92444.44;;;8.78;100.00
73941;BME280;62294;48.554;10.202;2023-04-24T07:04:39;92459.72;;;8.81;100.00
73941;BME280;62294;48.554;10.202;2023-04-24T07:07:06;92473.84;;;8.90;100.00
73941;BME280;62294;48.554;10.202;2023-04-24T07:09:33;92477.66;;;9.11;100.00
73941;BME280;62294;48.554;10.202;2023-04-24T07:12:01;92483.09;;;9.42;100.00
73941;BME280;62294;48.554;10.202;2023-04-24T07:14:28;92560.22;;;8.72;100.00
73941;BME280;62294;48.554;10.202;2023-04-24T07:16:55;92589.50;;;8.48;100.00
73941;BME280;62294;48.554;10.202;2023-04-24T07:19:23;92602.13;;;8.51;100.00
73941;BME280;62294;48.554;10.202;2023-04-24T07:21:50;92598.47;;;8.80;100.00
73941;BME280;62294;48.554;10.202;2023-04-24T07:24:16;92614.03;;;8.68;100.00
73941;BME280;62294;48.554;10.202;2023-04-24T07:26:43;92620.22;;;8.77;100.00
73941;BME280;62294;48.554;10.202;2023-04-24T07:29:10;92605.97;;;8.91;100.00
73941;BME280;62294;48.554;10.202;2023-04-24T07:31:37;92617.16;;;8.70;100.00
73941;BME280;62294;48.554;10.202;2023-04-24T07:34:03;92600.69;;;9.05;100.00
73941;BME280;62294;48.554;10.202;2023-04-24T07:36:30;92617.66;;;8.72;100.00
73941;BME280;62294;48.554;10.202;2023-04-24T07:38:58;92596.84;;;8.97;100.00
73941;BME280;62294;48.554;10.202;2023-04-24T07:41:24;92600.56;;;8.96;100.00
73941;BME280;62294;48.554;10.202;2023-04-24T07:43:51;92595.97;;;9.02;100.00
73941;BME280;62294;48.554;10.202;2023-04-24T07:46:20;92557.91;;;9.25;100.00
73941;BME280;62294;48.554;10.202;2023-04-24T07:48:46;92580.94;;;9.11;100.00
73941;BME280;62294;48.554;10.202;2023-04-24T07:51:27;92577.16;;;9.17;100.00
73941;BME280;62294;48.554;10.202;2023-04-24T07:53:54;92568.81;;;9.37;100.00
73941;BME280;62294;48.554;10.202;2023-04-24T07:56:23;92587.13;;;9.06;100.00
73941;BME280;62294;48.554;10.202;2023-04-24T07:58:53;92578.50;;;9.01;100.00
73941;BME280;62294;48.554;10.202;2023-04-24T08:01:19;92538.44;;;9.43;100.00
73941;BME280;62294;48.554;10.202;2023-04-24T08:03:46;92522.00;;;9.68;100.00
73941;BME280;62294;48.554;10.202;2023-04-24T08:06:13;92425.41;;;10.97;100.00
73941;BME280;62294;48.554;10.202;2023-04-24T08:08:39;92313.44;;;12.68;100.00
73941;BME280;62294;48.554;10.202;2023-04-24T08:11:06;92423.13;;;11.64;100.00
73941;BME280;62294;48.554;10.202;2023-04-24T08:13:32;92503.31;;;10.84;100.00
73941;BME280;62294;48.554;10.202;2023-04-24T08:15:59;92551.41;;;10.30;100.00
73941;BME280;62294;48.554;10.202;2023-04-24T08:18:26;92571.00;;;9.84;100.00
73941;BME280;62294;48.554;10.202;2023-04-24T08:20:53;92588.31;;;9.41;100.00
73941;BME280;62294;48.554;10.202;2023-04-24T08:23:19;92581.16;;;9.55;100.00
73941;BME280;62294;48.554;10.202;2023-04-24T08:25:46;92542.63;;;10.07;100.00
73941;BME280;62294;48.554;10.202;2023-04-24T08:28:12;92533.66;;;10.39;100.00
73941;BME280;62294;48.554;10.202;2023-04-24T08:30:42;92546.03;;;10.43;100.00
73941;BME280;62294;48.554;10.202;2023-04-24T08:33:08;92512.19;;;11.10;100.00
73941;BME280;62294;48.554;10.202;2023-04-24T08:35:35;92525.38;;;11.32;100.00
73941;BME280;62294;48.554;10.202;2023-04-24T08:38:01;92514.41;;;11.99;100.00
73941;BME280;62294;48.554;10.202;2023-04-24T08:40:28;92641.19;;;10.94;100.00
73941;BME280;62294;48.554;10.202;2023-04-24T08:42:59;92593.78;;;12.14;100.00
73941;BME280;62294;48.554;10.202;2023-04-24T08:45:25;92628.25;;;12.19;100.00
73941;BME280;62294;48.554;10.202;2023-04-24T08:47:53;92662.91;;;12.79;100.00
73941;BME280;62294;48.554;10.202;2023-04-24T08:50:22;92719.34;;;12.64;100.00
73941;BME280;62294;48.554;10.202;2023-04-24T08:52:52;92758.50;;;12.55;100.00
73941;BME280;62294;48.554;10.202;2023-04-24T08:55:24;92815.09;;;11.68;100.00
73941;BME280;62294;48.554;10.202;2023-04-24T08:57:52;92813.59;;;11.54;100.00
73941;BME280;62294;48.554;10.202;2023-04-24T09:00:22;92798.00;;;11.83;100.00
73941;BME280;62294;48.554;10.202;2023-04-24T09:02:50;92791.78;;;12.27;100.00
73941;BME280;62294;48.554;10.202;2023-04-24T09:05:17;92795.69;;;12.68;100.00
73941;BME280;62294;48.554;10.202;2023-04-24T09:07:49;92816.72;;;12.39;100.00
73941;BME280;62294;48.554;10.202;2023-04-24T09:10:16;92835.28;;;13.18;100.00
73941;BME280;62294;48.554;10.202;2023-04-24T09:12:43;92893.56;;;12.94;100.00
73941;BME280;62294;48.554;10.202;2023-04-24T09:15:10;92919.91;;;13.04;100.00
73941;BME280;62294;48.554;10.202;2023-04-24T09:17:37;93000.78;;;12.38;100.00
73941;BME280;62294;48.554;10.202;2023-04-24T09:20:05;92998.34;;;12.72;100.00
73941;BME280;62294;48.554;10.202;2023-04-24T09:22:32;93077.88;;;11.85;100.00
73941;BME280;62294;48.554;10.202;2023-04-24T09:25:05;92979.25;;;13.74;100.00
73941;BME280;62294;48.554;10.202;2023-04-24T09:27:33;93080.41;;;12.83;100.00
73941;BME280;62294;48.554;10.202;2023-04-24T09:30:01;93095.88;;;12.37;100.00
73941;BME280;62294;48.554;10.202;2023-04-24T09:32:28;93117.88;;;11.80;100.00
73941;BME280;62294;48.554;10.202;2023-04-24T09:35:11;93111.19;;;11.82;100.00
73941;BME280;62294;48.554;10.202;2023-04-24T09:37:41;93116.63;;;11.91;100.00
73941;BME280;62294;48.554;10.202;2023-04-24T09:40:09;93161.72;;;11.96;100.00
73941;BME280;62294;48.554;10.202;2023-04-24T09:42:38;93210.31;;;11.28;100.00
73941;BME280;62294;48.554;10.202;2023-04-24T09:45:09;93153.63;;;12.15;100.00
73941;BME280;62294;48.554;10.202;2023-04-24T09:47:41;93177.91;;;11.86;100.00
73941;BME280;62294;48.554;10.202;2023-04-24T09:50:10;93196.63;;;11.94;100.00
73941;BME280;62294;48.554;10.202;2023-04-24T09:52:40;93179.25;;;12.38;100.00
73941;BME280;62294;48.554;10.202;2023-04-24T09:55:15;93203.47;;;12.63;100.00
73941;BME280;62294;48.554;10.202;2023-04-24T10:00:25;93266.72;;;12.58;100.00
73941;BME280;62294;48.554;10.202;2023-04-24T10:03:00;93241.66;;;13.52;100.00
73941;BME280;62294;48.554;10.202;2023-04-24T10:05:30;93264.03;;;14.83;100.00
73941;BME280;62294;48.554;10.202;2023-04-24T10:08:10;93282.50;;;15.61;100.00
73941;BME280;62294;48.554;10.202;2023-04-24T10:10:43;93320.75;;;15.45;100.00
73941;BME280;62294;48.554;10.202;2023-04-24T10:13:10;93350.50;;;15.26;100.00
73941;BME280;62294;48.554;10.202;2023-04-24T10:15:38;93362.94;;;15.39;100.00
73941;BME280;62294;48.554;10.202;2023-04-24T10:18:05;93352.25;;;16.08;100.00
73941;BME280;62294;48.554;10.202;2023-04-24T10:20:36;93452.75;;;13.37;100.00
73941;BME280;62294;48.554;10.202;2023-04-24T10:23:03;93383.19;;;14.36;100.00
73941;BME280;62294;48.554;10.202;2023-04-24T10:25:33;93431.53;;;13.19;100.00
73941;BME280;62294;48.554;10.202;2023-04-24T10:28:01;93380.91;;;13.77;100.00
73941;BME280;62294;48.554;10.202;2023-04-24T10:30:31;93393.63;;;14.85;100.00
73941;BME280;62294;48.554;10.202;2023-04-24T10:33:03;93422.19;;;14.99;100.00
73941;BME280;62294;48.554;10.202;2023-04-24T10:35:39;93483.13;;;15.10;100.00
73941;BME280;62294;48.554;10.202;2023-04-24T10:38:14;93475.22;;;15.05;100.00
73941;BME280;62294;48.554;10.202;2023-04-24T10:40:43;93518.22;;;14.86;100.00
73941;BME280;62294;48.554;10.202;2023-04-24T10:43:16;93453.88;;;15.79;100.00
73941;BME280;62294;48.554;10.202;2023-04-24T10:46:03;93490.13;;;16.02;100.00
73941;BME280;62294;48.554;10.202;2023-04-24T10:48:31;94926.06;;;16.94;100.00
73941;BME280;62294;48.554;10.202;2023-04-24T10:50:58;94988.19;;;16.15;100.00
73941;BME280;62294;48.554;10.202;2023-04-24T10:53:29;95248.03;;;16.66;100.00
73941;BME280;62294;48.554;10.202;2023-04-24T10:55:58;95253.53;;;17.72;100.00
73941;BME280;62294;48.554;10.202;2023-04-24T10:58:39;95244.59;;;16.50;100.00
73941;BME280;62294;48.554;10.202;2023-04-24T11:01:07;95253.56;;;16.84;100.00
73941;BME280;62294;48.554;10.202;2023-04-24T11:03:34;95243.97;;;16.73;100.00
73941;BME280;62294;48.554;10.202;2023-04-24T11:06:07;95220.97;;;12.95;100.00
73941;BME280;62294;48.554;10.202;2023-04-24T11:08:39;95216.47;;;12.96;100.00
73941;BME280;62294;48.554;10.202;2023-04-24T11:16:42;95248.53;;;14.88;100.00
73941;BME280;62294;48.554;10.202;2023-04-24T11:19:09;95235.84;;;13.96;100.00
73941;BME280;62294;48.554;10.202;2023-04-24T11:21:43;95228.72;;;14.74;100.00
73941;BME280;62294;48.554;10.202;2023-04-24T11:24:27;95236.09;;;16.33;100.00
73941;BME280;62294;48.554;10.202;2023-04-24T11:26:57;95256.56;;;16.83;100.00
73941;BME280;62294;48.554;10.202;2023-04-24T11:29:51;95276.19;;;15.44;100.00
73941;BME280;62294;48.554;10.202;2023-04-24T11:35:08;95273.22;;;15.81;100.00
73941;BME280;62294;48.554;10.202;2023-04-24T11:37:40;95279.06;;;15.22;100.00
73941;BME280;62294;48.554;10.202;2023-04-24T11:40:09;95315.91;;;12.91;100.00
73941;BME280;62294;48.554;10.202;2023-04-24T11:42:40;95291.81;;;12.59;100.00
73941;BME280;62294;48.554;10.202;2023-04-24T11:45:08;95276.53;;;12.76;100.00
73941;BME280;62294;48.554;10.202;2023-04-24T11:47:37;95295.59;;;12.63;100.00
73941;BME280;62294;48.554;10.202;2023-04-24T11:50:05;95276.94;;;12.20;100.00
73941;BME280;62294;48.554;10.202;2023-04-24T11:52:33;95273.56;;;12.73;100.00
73941;BME280;62294;48.554;10.202;2023-04-24T11:55:03;95278.34;;;13.24;100.00
73941;BME280;62294;48.554;10.202;2023-04-24T11:57:30;95296.75;;;12.72;100.00
73941;BME280;62294;48.554;10.202;2023-04-24T12:00:02;95286.78;;;12.41;100.00
73941;BME280;62294;48.554;10.202;2023-04-24T12:02:31;95291.94;;;12.26;100.00
73941;BME280;62294;48.554;10.202;2023-04-24T12:04:57;95291.19;;;12.09;100.00
73941;BME280;62294;48.554;10.202;2023-04-24T12:07:24;95288.97;;;12.44;100.00
73941;BME280;62294;48.554;10.202;2023-04-24T12:09:56;95290.00;;;12.92;100.00
73941;BME280;62294;48.554;10.202;2023-04-24T12:12:28;95286.41;;;11.39;100.00
73941;BME280;62294;48.554;10.202;2023-04-24T12:14:56;95284.47;;;11.85;100.00
73941;BME280;62294;48.554;10.202;2023-04-24T12:17:26;95292.94;;;11.65;100.00
73941;BME280;62294;48.554;10.202;2023-04-24T12:20:03;95293.28;;;12.50;100.00
73941;BME280;62294;48.554;10.202;2023-04-24T12:22:45;95306.56;;;13.15;100.00
73941;BME280;62294;48.554;10.202;2023-04-24T12:25:15;95310.84;;;12.95;100.00
73941;BME280;62294;48.554;10.202;2023-04-24T12:27:43;95307.81;;;13.08;100.00
73941;BME280;62294;48.554;10.202;2023-04-24T12:30:15;95291.72;;;14.40;100.00
73941;BME280;62294;48.554;10.202;2023-04-24T12:32:44;95295.94;;;12.72;100.00
73941;BME280;62294;48.554;10.202;2023-04-24T12:35:12;95297.69;;;13.10;100.00
73941;BME280;62294;48.554;10.202;2023-04-24T12:37:38;95296.25;;;12.75;100.00
73941;BME280;62294;48.554;10.202;2023-04-24T12:40:10;95310.84;;;12.68;100.00
73941;BME280;62294;48.554;10.202;2023-04-24T12:42:45;95305.22;;;12.91;100.00
73941;BME280;62294;48.554;10.202;2023-04-24T12:45:13;95315.44;;;13.21;100.00
73941;BME280;62294;48.554;10.202;2023-04-24T12:47:40;95322.78;;;13.72;100.00
73941;BME280;62294;48.554;10.202;2023-04-24T12:50:09;95308.41;;;13.78;100.00
73941;BME280;62294;48.554;10.202;2023-04-24T12:52:36;95316.69;;;13.45;100.00
73941;BME280;62294;48.554;10.202;2023-04-24T12:55:03;95310.53;;;13.76;100.00
73941;BME280;62294;48.554;10.202;2023-04-24T12:57:31;95305.47;;;13.43;100.00
73941;BME280;62294;48.554;10.202;2023-04-24T12:59:58;95314.69;;;13.30;100.00